Strona główna
METAR-TAF:

METAR-TAF

Lotnisko :

Hartness State Airport

Springfield, Vermont, Stany Zjednoczone

Szerokość geograficzna: 43-20-33N, Długość geograficzna: 072-31-18W, wysokość: 175 m

Aktualna obserwacja pogody

Raport powstał 40 minut temu, godzina 19:14 UTC
Cisza
Temperatura 9°C
Wilgotność 100%
Ciśnienie 1012 hPa
Widzialność: 16.1 km
Zachmurzenie całkowite na wysokości 900 ft
słaby deszcz

METAR: KVSF 151914Z AUTO 00000KT 10SM -RA OVC009 09/09 A2988 RMK AO2 P0000 T00890089

czas: 15:54 (19:54 UTC)


TAF: brakujący

Obserwacja i prognoza pogody dla ponad 4000 lotnisk (raport METAR i TAF).

Dostępne stacje oznaczono żółtymi i czerwonymi punktami na mapie.

Najedź kursorem aby zobaczyć nazwę stacji.

Kliknij aby zobaczyć obserwacje i prognozy pogody.

Aby zmienić mapę: kliknij na zielony przycisk z czarnym krzyżykiem, aby powiększyć; na zielony przycisk z myślnikiem, aby pomniejszyć; na zielone strzałki, aby przejść do map sąsiednich.


METAR-TAF: